Clemson, SC

7:58 AM EST on January 28, 2015 (GMT -0500)
CU Ent Dept | Change Station
CLOSE
Current Station
Personal Weather Station
Location: Clemson, SC
Elevation: 842 ft
Nearby Weather Stations

Elev 842 ft 34.68 °N, 82.83 °W | Updated 45 seconds ago

Clear
Clear
26.0 °F
Feels Like 26 °F
N
0.0
Wind Variable Wind from SE
Gusts 0.0 mph

Today
High -- | Low -- °F
--% Chance of Precip.
Yesterday
High -- | Low -- °F
Precip. -- in
7:32 AM 5:56 PM
Waxing Gibbous, 64% visible
Pressure 30.20 in
Visibility 10.0 miles
Clouds Clear
Windchill 26 °F
Dew Point 24 °F
Humidity 94%
Rainfall 0.00 in
Snow Depth Not available.
UV 0 out of 12
Pollen 1.50 out of 12
Air Quality Not available.
Flu Activity Not available.
METAR KCEU 281154Z AUTO 35005KT 10SM CLR M01/M07 A3019 RMK AO2 SLP226 T10111072 10022 21017 53029

More Conditions Fewer Conditions

Pressure 30.20 in
Visibility 10.0 miles
Clouds Clear
Windchill 26 °F
Dew Point 24 °F
Humidity 94%
Rainfall 0.00 in
Snow Depth Not available.
UV 0 out of 12
Pollen 1.50 out of 12
Air Quality Not available.
Flu Activity Not available.
METAR KCEU 281154Z AUTO 35005KT 10SM CLR M01/M07 A3019 RMK AO2 SLP226 T10111072 10022 21017 53029

More Conditions Fewer Conditions

10-Day Weather Forecast

Almanac

Astronomy

Jan. 28, 2015 Rise Set
Actual Time
Civil Twilight
Nautical Twilight
Astronomical Twilight
Moon
Length of Visible Light
Length of Day
Tomorrow will be .
, % of the Moon is Illuminated

Today's Extremes

State Highs State Lows

Community

WunderPhotos

Upload Photos

1,791,133 photos uploaded!

WunderBlogs® & News

Nearby

Air Quality

  Air Quality AQ Index Pollutant
Not available.

Snow Depth

Station Depth Elevation

Earthquake Activity

City Distance Mag. Time & Date
Minimum magnitude displayed is 2.5.

Coastal Water Temperatures

Place Temperature

Nearby Weather Stations